South River, New Jersey
Current Conditions -  °F | °C
As of 2:55 AM on Wednesday 22 Oct 2014 (Local Time) from KLDJ Reporting Station
Overcast Overcast  
Wind Chill: 16°   Ceiling: 1900
Heat Index: 16°   Visibility: 10mi
Dew Point: 13°   Wind: 7mph
Humidity: 85%   Direction: 40°NE
Pressure: 29.88"   Gusts: NA
Location:  40.45°N, 74.38°W
Report Text: KLDJ 220655Z AUTO 04006KT 10SM OVC019 16/13 A2988 RMK AO2 LTG DSNT SE AND SW T01550130
Loading
Personal Weather Stations






























Interactive Weather Map
Tropical Storm Tracking
New forecast layout! Learn more

10-Day Weather Forecast

Advertisements
Track Severe Weather on mobile